sensor_id;sensor_type;location;lat;lon;timestamp;temperature;humidity
34153;DHT22;20426;48.372;10.888;2022-09-09T00:00:11;16.20;99.90
34153;DHT22;20426;48.372;10.888;2022-09-09T00:02:41;16.10;99.90
34153;DHT22;20426;48.372;10.888;2022-09-09T00:03:23;16.20;99.90
34153;DHT22;20426;48.372;10.888;2022-09-09T00:05:00;16.10;99.90
34153;DHT22;20426;48.372;10.888;2022-09-09T00:05:44;16.10;99.90
34153;DHT22;20426;48.372;10.888;2022-09-09T00:07:52;16.10;99.90
34153;DHT22;20426;48.372;10.888;2022-09-09T00:08:51;16.10;99.90
34153;DHT22;20426;48.372;10.888;2022-09-09T00:09:28;16.10;99.90
34153;DHT22;20426;48.372;10.888;2022-09-09T00:10:39;16.00;99.90
34153;DHT22;20426;48.372;10.888;2022-09-09T00:11:12;16.00;99.90
34153;DHT22;20426;48.372;10.888;2022-09-09T00:13:41;15.90;99.90
34153;DHT22;20426;48.372;10.888;2022-09-09T00:15:14;15.90;99.90
34153;DHT22;20426;48.372;10.888;2022-09-09T00:16:12;15.90;99.90
34153;DHT22;20426;48.372;10.888;2022-09-09T00:16:51;15.80;99.90
34153;DHT22;20426;48.372;10.888;2022-09-09T00:18:44;15.80;99.90
34153;DHT22;20426;48.372;10.888;2022-09-09T00:20:24;15.80;99.90
34153;DHT22;20426;48.372;10.888;2022-09-09T00:21:11;15.80;99.90
34153;DHT22;20426;48.372;10.888;2022-09-09T00:22:00;15.80;99.90
34153;DHT22;20426;48.372;10.888;2022-09-09T00:22:36;15.70;99.90
34153;DHT22;20426;48.372;10.888;2022-09-09T00:23:18;15.80;99.90
34153;DHT22;20426;48.372;10.888;2022-09-09T00:23:54;15.70;99.90
34153;DHT22;20426;48.372;10.888;2022-09-09T00:24:36;15.80;99.90
34153;DHT22;20426;48.372;10.888;2022-09-09T00:25:12;15.70;99.90
34153;DHT22;20426;48.372;10.888;2022-09-09T00:26:44;15.80;99.90
34153;DHT22;20426;48.372;10.888;2022-09-09T00:28:00;15.80;99.90
34153;DHT22;20426;48.372;10.888;2022-09-09T00:28:36;15.70;99.90
34153;DHT22;20426;48.372;10.888;2022-09-09T00:29:58;15.70;99.90
34153;DHT22;20426;48.372;10.888;2022-09-09T00:30:34;15.70;99.90
34153;DHT22;20426;48.372;10.888;2022-09-09T00:31:13;15.70;99.90
34153;DHT22;20426;48.372;10.888;2022-09-09T00:31:45;15.70;99.90
34153;DHT22;20426;48.372;10.888;2022-09-09T00:32:18;15.70;99.90
34153;DHT22;20426;48.372;10.888;2022-09-09T00:32:59;15.70;99.90
34153;DHT22;20426;48.372;10.888;2022-09-09T00:33:30;15.70;99.90
34153;DHT22;20426;48.372;10.888;2022-09-09T00:34:23;15.70;99.90
34153;DHT22;20426;48.372;10.888;2022-09-09T00:35:03;15.70;99.90
34153;DHT22;20426;48.372;10.888;2022-09-09T00:35:40;15.70;99.90
34153;DHT22;20426;48.372;10.888;2022-09-09T00:36:18;15.70;99.90
34153;DHT22;20426;48.372;10.888;2022-09-09T00:36:52;15.70;99.90
34153;DHT22;20426;48.372;10.888;2022-09-09T00:37:24;15.70;99.90
34153;DHT22;20426;48.372;10.888;2022-09-09T00:38:00;15.70;99.90
34153;DHT22;20426;48.372;10.888;2022-09-09T00:38:36;15.70;99.90
34153;DHT22;20426;48.372;10.888;2022-09-09T00:39:20;15.60;99.90
34153;DHT22;20426;48.372;10.888;2022-09-09T00:39:54;15.60;99.90
34153;DHT22;20426;48.372;10.888;2022-09-09T00:40:35;15.60;99.90
34153;DHT22;20426;48.372;10.888;2022-09-09T00:42:16;15.60;99.90
34153;DHT22;20426;48.372;10.888;2022-09-09T00:42:54;15.60;99.90
34153;DHT22;20426;48.372;10.888;2022-09-09T00:43:34;15.60;99.90
34153;DHT22;20426;48.372;10.888;2022-09-09T00:44:31;15.60;99.90
34153;DHT22;20426;48.372;10.888;2022-09-09T00:45:19;15.50;99.90
34153;DHT22;20426;48.372;10.888;2022-09-09T00:47:46;15.60;99.90
34153;DHT22;20426;48.372;10.888;2022-09-09T00:48:24;15.60;99.90
34153;DHT22;20426;48.372;10.888;2022-09-09T00:50:03;15.60;99.90
34153;DHT22;20426;48.372;10.888;2022-09-09T00:50:56;15.50;99.90
34153;DHT22;20426;48.372;10.888;2022-09-09T00:52:12;15.60;99.90
34153;DHT22;20426;48.372;10.888;2022-09-09T00:56:14;15.60;99.90
34153;DHT22;20426;48.372;10.888;2022-09-09T00:57:33;15.60;99.90
34153;DHT22;20426;48.372;10.888;2022-09-09T00:58:07;15.50;99.90
34153;DHT22;20426;48.372;10.888;2022-09-09T00:58:39;15.50;99.90
34153;DHT22;20426;48.372;10.888;2022-09-09T01:00:44;15.50;99.90
34153;DHT22;20426;48.372;10.888;2022-09-09T01:01:15;15.50;99.90
34153;DHT22;20426;48.372;10.888;2022-09-09T01:01:46;15.50;99.90
34153;DHT22;20426;48.372;10.888;2022-09-09T01:02:36;15.50;99.90
34153;DHT22;20426;48.372;10.888;2022-09-09T01:03:18;15.50;99.90
34153;DHT22;20426;48.372;10.888;2022-09-09T01:03:55;15.50;99.90
34153;DHT22;20426;48.372;10.888;2022-09-09T01:04:33;15.50;99.90
34153;DHT22;20426;48.372;10.888;2022-09-09T01:05:19;15.50;99.90
34153;DHT22;20426;48.372;10.888;2022-09-09T01:07:01;15.50;99.90
34153;DHT22;20426;48.372;10.888;2022-09-09T01:07:34;15.50;99.90
34153;DHT22;20426;48.372;10.888;2022-09-09T01:08:20;15.50;99.90
34153;DHT22;20426;48.372;10.888;2022-09-09T01:09:11;15.50;99.90
34153;DHT22;20426;48.372;10.888;2022-09-09T01:09:54;15.50;99.90
34153;DHT22;20426;48.372;10.888;2022-09-09T01:10:47;15.50;99.90
34153;DHT22;20426;48.372;10.888;2022-09-09T01:11:26;15.50;99.90
34153;DHT22;20426;48.372;10.888;2022-09-09T01:12:23;15.50;99.90
34153;DHT22;20426;48.372;10.888;2022-09-09T01:12:58;15.50;99.90
34153;DHT22;20426;48.372;10.888;2022-09-09T01:13:33;15.50;99.90
34153;DHT22;20426;48.372;10.888;2022-09-09T01:15:26;15.50;99.90
34153;DHT22;20426;48.372;10.888;2022-09-09T01:16:03;15.50;99.90
34153;DHT22;20426;48.372;10.888;2022-09-09T01:16:34;15.50;99.90
34153;DHT22;20426;48.372;10.888;2022-09-09T01:18:02;15.50;99.90
34153;DHT22;20426;48.372;10.888;2022-09-09T01:18:43;15.50;99.90
34153;DHT22;20426;48.372;10.888;2022-09-09T01:19:24;15.50;99.90
34153;DHT22;20426;48.372;10.888;2022-09-09T01:20:20;15.50;99.90
34153;DHT22;20426;48.372;10.888;2022-09-09T01:22:29;15.60;99.90
34153;DHT22;20426;48.372;10.888;2022-09-09T01:24:32;15.50;99.90
34153;DHT22;20426;48.372;10.888;2022-09-09T01:26:43;15.50;99.90
34153;DHT22;20426;48.372;10.888;2022-09-09T01:27:15;15.50;99.90
34153;DHT22;20426;48.372;10.888;2022-09-09T01:27:49;15.50;99.90
34153;DHT22;20426;48.372;10.888;2022-09-09T01:28:26;15.40;99.90
34153;DHT22;20426;48.372;10.888;2022-09-09T01:28:57;15.50;99.90
34153;DHT22;20426;48.372;10.888;2022-09-09T01:29:28;15.40;99.90
34153;DHT22;20426;48.372;10.888;2022-09-09T01:29:59;15.40;99.90
34153;DHT22;20426;48.372;10.888;2022-09-09T01:30:31;15.40;99.90
34153;DHT22;20426;48.372;10.888;2022-09-09T01:31:04;15.40;99.90
34153;DHT22;20426;48.372;10.888;2022-09-09T01:31:41;15.40;99.90
34153;DHT22;20426;48.372;10.888;2022-09-09T01:32:38;15.40;99.90
34153;DHT22;20426;48.372;10.888;2022-09-09T01:33:13;15.40;99.90
34153;DHT22;20426;48.372;10.888;2022-09-09T01:33:46;15.40;99.90
34153;DHT22;20426;48.372;10.888;2022-09-09T01:34:17;15.50;99.90
34153;DHT22;20426;48.372;10.888;2022-09-09T01:34:47;15.50;99.90
34153;DHT22;20426;48.372;10.888;2022-09-09T01:36:29;15.50;99.90
34153;DHT22;20426;48.372;10.888;2022-09-09T01:37:10;15.50;99.90
34153;DHT22;20426;48.372;10.888;2022-09-09T01:37:42;15.50;99.90
34153;DHT22;20426;48.372;10.888;2022-09-09T01:38:13;15.50;99.90
34153;DHT22;20426;48.372;10.888;2022-09-09T01:38:45;15.50;99.90
34153;DHT22;20426;48.372;10.888;2022-09-09T01:39:16;15.50;99.90
34153;DHT22;20426;48.372;10.888;2022-09-09T01:39:47;15.60;99.90
34153;DHT22;20426;48.372;10.888;2022-09-09T01:40:18;15.50;99.90
34153;DHT22;20426;48.372;10.888;2022-09-09T01:40:50;15.50;99.90
34153;DHT22;20426;48.372;10.888;2022-09-09T01:41:22;15.50;99.90
34153;DHT22;20426;48.372;10.888;2022-09-09T01:41:54;15.50;99.90
34153;DHT22;20426;48.372;10.888;2022-09-09T01:42:26;15.50;99.90
34153;DHT22;20426;48.372;10.888;2022-09-09T01:42:56;15.50;99.90
34153;DHT22;20426;48.372;10.888;2022-09-09T01:43:28;15.50;99.90
34153;DHT22;20426;48.372;10.888;2022-09-09T01:43:59;15.50;99.90
34153;DHT22;20426;48.372;10.888;2022-09-09T01:44:30;15.50;99.90
34153;DHT22;20426;48.372;10.888;2022-09-09T01:45:01;15.50;99.90
34153;DHT22;20426;48.372;10.888;2022-09-09T01:45:32;15.40;99.90
34153;DHT22;20426;48.372;10.888;2022-09-09T01:46:03;15.50;99.90
34153;DHT22;20426;48.372;10.888;2022-09-09T01:46:34;15.40;99.90
34153;DHT22;20426;48.372;10.888;2022-09-09T01:47:06;15.40;99.90
34153;DHT22;20426;48.372;10.888;2022-09-09T01:47:36;15.40;99.90
34153;DHT22;20426;48.372;10.888;2022-09-09T01:48:07;15.40;99.90
34153;DHT22;20426;48.372;10.888;2022-09-09T01:48:38;15.40;99.90
34153;DHT22;20426;48.372;10.888;2022-09-09T01:49:11;15.40;99.90
34153;DHT22;20426;48.372;10.888;2022-09-09T01:49:42;15.40;99.90
34153;DHT22;20426;48.372;10.888;2022-09-09T01:50:15;15.40;99.90
34153;DHT22;20426;48.372;10.888;2022-09-09T01:50:46;15.40;99.90
34153;DHT22;20426;48.372;10.888;2022-09-09T01:51:17;15.40;99.90
34153;DHT22;20426;48.372;10.888;2022-09-09T01:51:53;15.40;99.90
34153;DHT22;20426;48.372;10.888;2022-09-09T01:52:25;15.40;99.90
34153;DHT22;20426;48.372;10.888;2022-09-09T01:52:58;15.40;99.90
34153;DHT22;20426;48.372;10.888;2022-09-09T01:53:29;15.30;99.90
34153;DHT22;20426;48.372;10.888;2022-09-09T01:54:00;15.30;99.90
34153;DHT22;20426;48.372;10.888;2022-09-09T01:54:32;15.30;99.90
34153;DHT22;20426;48.372;10.888;2022-09-09T01:55:04;15.30;99.90
34153;DHT22;20426;48.372;10.888;2022-09-09T01:55:40;15.30;99.90
34153;DHT22;20426;48.372;10.888;2022-09-09T01:57:21;15.30;99.90
34153;DHT22;20426;48.372;10.888;2022-09-09T01:58:55;15.30;99.90
34153;DHT22;20426;48.372;10.888;2022-09-09T01:59:13;15.30;99.90
34153;DHT22;20426;48.372;10.888;2022-09-09T02:00:09;15.30;99.90
34153;DHT22;20426;48.372;10.888;2022-09-09T02:00:48;15.30;99.90
34153;DHT22;20426;48.372;10.888;2022-09-09T02:02:26;15.30;99.90
34153;DHT22;20426;48.372;10.888;2022-09-09T02:03:20;15.30;99.90
34153;DHT22;20426;48.372;10.888;2022-09-09T02:03:54;15.30;99.90
34153;DHT22;20426;48.372;10.888;2022-09-09T02:04:41;15.30;99.90
34153;DHT22;20426;48.372;10.888;2022-09-09T02:05:28;15.30;99.90
34153;DHT22;20426;48.372;10.888;2022-09-09T02:06:46;15.30;99.90
34153;DHT22;20426;48.372;10.888;2022-09-09T02:07:44;15.30;99.90
34153;DHT22;20426;48.372;10.888;2022-09-09T02:08:43;15.20;99.90
34153;DHT22;20426;48.372;10.888;2022-09-09T02:09:18;15.20;99.90
34153;DHT22;20426;48.372;10.888;2022-09-09T02:09:54;15.20;99.90
34153;DHT22;20426;48.372;10.888;2022-09-09T02:11:09;15.20;99.90
34153;DHT22;20426;48.372;10.888;2022-09-09T02:11:42;15.20;99.90
34153;DHT22;20426;48.372;10.888;2022-09-09T02:12:17;15.10;99.90
34153;DHT22;20426;48.372;10.888;2022-09-09T02:12:55;15.10;99.90
34153;DHT22;20426;48.372;10.888;2022-09-09T02:13:32;15.10;99.90
34153;DHT22;20426;48.372;10.888;2022-09-09T02:14:10;15.10;99.90
34153;DHT22;20426;48.372;10.888;2022-09-09T02:14:49;15.10;99.90
34153;DHT22;20426;48.372;10.888;2022-09-09T02:16:15;15.10;99.90
34153;DHT22;20426;48.372;10.888;2022-09-09T02:16:51;15.10;99.90
34153;DHT22;20426;48.372;10.888;2022-09-09T02:17:30;15.10;99.90
34153;DHT22;20426;48.372;10.888;2022-09-09T02:18:04;15.10;99.90
34153;DHT22;20426;48.372;10.888;2022-09-09T02:19:44;15.10;99.90
34153;DHT22;20426;48.372;10.888;2022-09-09T02:20:18;15.00;99.90
34153;DHT22;20426;48.372;10.888;2022-09-09T02:20:50;15.00;99.90
34153;DHT22;20426;48.372;10.888;2022-09-09T02:21:22;15.00;99.90
34153;DHT22;20426;48.372;10.888;2022-09-09T02:21:55;15.00;99.90
34153;DHT22;20426;48.372;10.888;2022-09-09T02:22:28;15.00;99.90
34153;DHT22;20426;48.372;10.888;2022-09-09T02:23:00;15.00;99.90
34153;DHT22;20426;48.372;10.888;2022-09-09T02:23:33;14.90;99.90
34153;DHT22;20426;48.372;10.888;2022-09-09T02:24:06;14.90;99.90
34153;DHT22;20426;48.372;10.888;2022-09-09T02:24:40;15.00;99.90
34153;DHT22;20426;48.372;10.888;2022-09-09T02:25:13;15.00;99.90
34153;DHT22;20426;48.372;10.888;2022-09-09T02:25:45;15.00;99.90
34153;DHT22;20426;48.372;10.888;2022-09-09T02:26:19;15.00;99.90
34153;DHT22;20426;48.372;10.888;2022-09-09T02:26:54;15.00;99.90
34153;DHT22;20426;48.372;10.888;2022-09-09T02:27:26;15.00;99.90
34153;DHT22;20426;48.372;10.888;2022-09-09T02:27:58;15.00;99.90
34153;DHT22;20426;48.372;10.888;2022-09-09T02:28:31;15.00;99.90
34153;DHT22;20426;48.372;10.888;2022-09-09T02:29:05;14.90;99.90
34153;DHT22;20426;48.372;10.888;2022-09-09T02:29:42;14.90;99.90
34153;DHT22;20426;48.372;10.888;2022-09-09T02:30:13;14.90;99.90
34153;DHT22;20426;48.372;10.888;2022-09-09T02:30:45;14.90;99.90
34153;DHT22;20426;48.372;10.888;2022-09-09T02:31:19;15.00;99.90
34153;DHT22;20426;48.372;10.888;2022-09-09T02:31:51;15.00;99.90
34153;DHT22;20426;48.372;10.888;2022-09-09T02:32:25;15.00;99.90
34153;DHT22;20426;48.372;10.888;2022-09-09T02:32:57;14.90;99.90
34153;DHT22;20426;48.372;10.888;2022-09-09T02:33:35;14.90;99.90
34153;DHT22;20426;48.372;10.888;2022-09-09T02:34:09;15.00;99.90
34153;DHT22;20426;48.372;10.888;2022-09-09T02:34:47;15.00;99.90
34153;DHT22;20426;48.372;10.888;2022-09-09T02:35:21;15.00;99.90
34153;DHT22;20426;48.372;10.888;2022-09-09T02:35:54;15.00;99.90
34153;DHT22;20426;48.372;10.888;2022-09-09T02:36:32;15.00;99.90
34153;DHT22;20426;48.372;10.888;2022-09-09T02:37:07;15.10;99.90
34153;DHT22;20426;48.372;10.888;2022-09-09T02:37:40;15.00;99.90
34153;DHT22;20426;48.372;10.888;2022-09-09T02:38:13;15.10;99.90
34153;DHT22;20426;48.372;10.888;2022-09-09T02:38:47;15.10;99.90
34153;DHT22;20426;48.372;10.888;2022-09-09T02:39:21;15.10;99.90
34153;DHT22;20426;48.372;10.888;2022-09-09T02:39:51;15.10;99.90
34153;DHT22;20426;48.372;10.888;2022-09-09T02:40:22;15.10;99.90
34153;DHT22;20426;48.372;10.888;2022-09-09T02:40:53;15.10;99.90
34153;DHT22;20426;48.372;10.888;2022-09-09T02:41:28;15.10;99.90
34153;DHT22;20426;48.372;10.888;2022-09-09T02:42:01;15.10;99.90
34153;DHT22;20426;48.372;10.888;2022-09-09T02:42:44;15.10;99.90
34153;DHT22;20426;48.372;10.888;2022-09-09T02:43:15;15.00;99.90
34153;DHT22;20426;48.372;10.888;2022-09-09T02:43:49;15.00;99.90
34153;DHT22;20426;48.372;10.888;2022-09-09T02:44:20;15.00;99.90
34153;DHT22;20426;48.372;10.888;2022-09-09T02:44:50;15.10;99.90
34153;DHT22;20426;48.372;10.888;2022-09-09T02:45:35;15.00;99.90
34153;DHT22;20426;48.372;10.888;2022-09-09T02:48:20;15.00;99.90
34153;DHT22;20426;48.372;10.888;2022-09-09T02:49:15;15.00;99.90
34153;DHT22;20426;48.372;10.888;2022-09-09T02:50:08;14.90;99.90
34153;DHT22;20426;48.372;10.888;2022-09-09T02:50:54;14.90;99.90
34153;DHT22;20426;48.372;10.888;2022-09-09T02:51:45;14.90;99.90
34153;DHT22;20426;48.372;10.888;2022-09-09T02:54:28;14.80;99.90
34153;DHT22;20426;48.372;10.888;2022-09-09T02:55:09;14.80;99.90
34153;DHT22;20426;48.372;10.888;2022-09-09T02:55:47;14.80;99.90
34153;DHT22;20426;48.372;10.888;2022-09-09T02:56:21;14.80;99.90
34153;DHT22;20426;48.372;10.888;2022-09-09T02:56:54;14.80;99.90
34153;DHT22;20426;48.372;10.888;2022-09-09T02:57:28;14.80;99.90
34153;DHT22;20426;48.372;10.888;2022-09-09T02:58:02;14.80;99.90
34153;DHT22;20426;48.372;10.888;2022-09-09T02:58:36;14.80;99.90
34153;DHT22;20426;48.372;10.888;2022-09-09T02:59:07;14.80;99.90
34153;DHT22;20426;48.372;10.888;2022-09-09T02:59:39;14.80;99.90
34153;DHT22;20426;48.372;10.888;2022-09-09T03:00:11;14.80;99.90
34153;DHT22;20426;48.372;10.888;2022-09-09T03:00:41;14.80;99.90
34153;DHT22;20426;48.372;10.888;2022-09-09T03:01:12;14.80;99.90
34153;DHT22;20426;48.372;10.888;2022-09-09T03:01:44;14.80;99.90
34153;DHT22;20426;48.372;10.888;2022-09-09T03:02:15;14.80;99.90
34153;DHT22;20426;48.372;10.888;2022-09-09T03:02:46;14.80;99.90
34153;DHT22;20426;48.372;10.888;2022-09-09T03:03:18;14.80;99.90
34153;DHT22;20426;48.372;10.888;2022-09-09T03:03:49;14.80;99.90
34153;DHT22;20426;48.372;10.888;2022-09-09T03:04:20;14.80;99.90
34153;DHT22;20426;48.372;10.888;2022-09-09T03:04:51;14.80;99.90
34153;DHT22;20426;48.372;10.888;2022-09-09T03:05:22;14.80;99.90
34153;DHT22;20426;48.372;10.888;2022-09-09T03:05:53;14.80;99.90
34153;DHT22;20426;48.372;10.888;2022-09-09T03:06:23;14.80;99.90
34153;DHT22;20426;48.372;10.888;2022-09-09T03:06:54;14.80;99.90
34153;DHT22;20426;48.372;10.888;2022-09-09T03:07:25;14.80;99.90
34153;DHT22;20426;48.372;10.888;2022-09-09T03:07:55;14.80;99.90
34153;DHT22;20426;48.372;10.888;2022-09-09T03:08:26;14.80;99.90
34153;DHT22;20426;48.372;10.888;2022-09-09T03:08:57;14.80;99.90
34153;DHT22;20426;48.372;10.888;2022-09-09T03:09:31;14.80;99.90
34153;DHT22;20426;48.372;10.888;2022-09-09T03:10:03;14.80;99.90
34153;DHT22;20426;48.372;10.888;2022-09-09T03:10:34;14.80;99.90
34153;DHT22;20426;48.372;10.888;2022-09-09T03:11:07;14.80;99.90
34153;DHT22;20426;48.372;10.888;2022-09-09T03:11:39;14.80;99.90
34153;DHT22;20426;48.372;10.888;2022-09-09T03:12:10;14.80;99.90
34153;DHT22;20426;48.372;10.888;2022-09-09T03:12:41;14.80;99.90
34153;DHT22;20426;48.372;10.888;2022-09-09T03:13:12;14.90;99.90
34153;DHT22;20426;48.372;10.888;2022-09-09T03:13:45;14.90;99.90
34153;DHT22;20426;48.372;10.888;2022-09-09T03:14:16;14.90;99.90
34153;DHT22;20426;48.372;10.888;2022-09-09T03:14:47;14.90;99.90
34153;DHT22;20426;48.372;10.888;2022-09-09T03:15:17;14.90;99.90
34153;DHT22;20426;48.372;10.888;2022-09-09T03:15:48;14.90;99.90
34153;DHT22;20426;48.372;10.888;2022-09-09T03:16:19;14.90;99.90
34153;DHT22;20426;48.372;10.888;2022-09-09T03:16:51;14.90;99.90
34153;DHT22;20426;48.372;10.888;2022-09-09T03:17:21;14.90;99.90
34153;DHT22;20426;48.372;10.888;2022-09-09T03:17:52;14.90;99.90
34153;DHT22;20426;48.372;10.888;2022-09-09T03:18:23;14.90;99.90
34153;DHT22;20426;48.372;10.888;2022-09-09T03:18:53;15.00;99.90
34153;DHT22;20426;48.372;10.888;2022-09-09T03:19:24;14.90;99.90
34153;DHT22;20426;48.372;10.888;2022-09-09T03:19:55;14.90;99.90
34153;DHT22;20426;48.372;10.888;2022-09-09T03:20:30;15.00;99.90
34153;DHT22;20426;48.372;10.888;2022-09-09T03:21:01;14.90;99.90
34153;DHT22;20426;48.372;10.888;2022-09-09T03:21:31;14.90;99.90
34153;DHT22;20426;48.372;10.888;2022-09-09T03:22:02;15.00;99.90
34153;DHT22;20426;48.372;10.888;2022-09-09T03:22:35;14.90;99.90
34153;DHT22;20426;48.372;10.888;2022-09-09T03:23:05;14.90;99.90
34153;DHT22;20426;48.372;10.888;2022-09-09T03:23:36;14.90;99.90
34153;DHT22;20426;48.372;10.888;2022-09-09T03:24:06;14.90;99.90
34153;DHT22;20426;48.372;10.888;2022-09-09T03:24:37;14.90;99.90
34153;DHT22;20426;48.372;10.888;2022-09-09T03:25:08;14.90;99.90
34153;DHT22;20426;48.372;10.888;2022-09-09T03:25:39;14.90;99.90
34153;DHT22;20426;48.372;10.888;2022-09-09T03:26:10;14.90;99.90
34153;DHT22;20426;48.372;10.888;2022-09-09T03:26:41;14.90;99.90
34153;DHT22;20426;48.372;10.888;2022-09-09T03:27:15;14.90;99.90
34153;DHT22;20426;48.372;10.888;2022-09-09T03:27:46;14.90;99.90
34153;DHT22;20426;48.372;10.888;2022-09-09T03:28:17;14.80;99.90
34153;DHT22;20426;48.372;10.888;2022-09-09T03:28:47;14.90;99.90
34153;DHT22;20426;48.372;10.888;2022-09-09T03:29:18;14.90;99.90
34153;DHT22;20426;48.372;10.888;2022-09-09T03:29:49;14.90;99.90
34153;DHT22;20426;48.372;10.888;2022-09-09T03:30:24;14.80;99.90
34153;DHT22;20426;48.372;10.888;2022-09-09T03:31:07;14.80;99.90
34153;DHT22;20426;48.372;10.888;2022-09-09T03:31:40;14.80;99.90
34153;DHT22;20426;48.372;10.888;2022-09-09T03:32:11;14.80;99.90
34153;DHT22;20426;48.372;10.888;2022-09-09T03:32:42;14.80;99.90
34153;DHT22;20426;48.372;10.888;2022-09-09T03:33:13;14.70;99.90
34153;DHT22;20426;48.372;10.888;2022-09-09T03:33:45;14.70;99.90
34153;DHT22;20426;48.372;10.888;2022-09-09T03:34:16;14.70;99.90
34153;DHT22;20426;48.372;10.888;2022-09-09T03:34:46;14.80;99.90
34153;DHT22;20426;48.372;10.888;2022-09-09T03:35:20;14.70;99.90
34153;DHT22;20426;48.372;10.888;2022-09-09T03:35:50;14.70;99.90
34153;DHT22;20426;48.372;10.888;2022-09-09T03:36:21;14.70;99.90
34153;DHT22;20426;48.372;10.888;2022-09-09T03:36:52;14.70;99.90
34153;DHT22;20426;48.372;10.888;2022-09-09T03:37:22;14.70;99.90
34153;DHT22;20426;48.372;10.888;2022-09-09T03:37:53;14.70;99.90
34153;DHT22;20426;48.372;10.888;2022-09-09T03:38:25;14.70;99.90
34153;DHT22;20426;48.372;10.888;2022-09-09T03:38:56;14.70;99.90
34153;DHT22;20426;48.372;10.888;2022-09-09T03:39:26;14.70;99.90
34153;DHT22;20426;48.372;10.888;2022-09-09T03:39:57;14.70;99.90
34153;DHT22;20426;48.372;10.888;2022-09-09T03:40:28;14.70;99.90
34153;DHT22;20426;48.372;10.888;2022-09-09T03:40:59;14.70;99.90
34153;DHT22;20426;48.372;10.888;2022-09-09T03:41:31;14.60;99.90
34153;DHT22;20426;48.372;10.888;2022-09-09T03:42:02;14.60;99.90
34153;DHT22;20426;48.372;10.888;2022-09-09T03:42:37;14.60;99.90
34153;DHT22;20426;48.372;10.888;2022-09-09T03:43:08;14.70;99.90
34153;DHT22;20426;48.372;10.888;2022-09-09T03:43:40;14.60;99.90
34153;DHT22;20426;48.372;10.888;2022-09-09T03:44:12;14.60;99.90
34153;DHT22;20426;48.372;10.888;2022-09-09T03:44:42;14.60;99.90
34153;DHT22;20426;48.372;10.888;2022-09-09T03:45:14;14.60;99.90
34153;DHT22;20426;48.372;10.888;2022-09-09T03:45:46;14.60;99.90
34153;DHT22;20426;48.372;10.888;2022-09-09T03:46:21;14.60;99.90
34153;DHT22;20426;48.372;10.888;2022-09-09T03:46:52;14.50;99.90
34153;DHT22;20426;48.372;10.888;2022-09-09T03:47:23;14.60;99.90
34153;DHT22;20426;48.372;10.888;2022-09-09T03:47:53;14.60;99.90
34153;DHT22;20426;48.372;10.888;2022-09-09T03:48:25;14.60;99.90
34153;DHT22;20426;48.372;10.888;2022-09-09T03:48:57;14.60;99.90
34153;DHT22;20426;48.372;10.888;2022-09-09T03:49:28;14.70;99.90
34153;DHT22;20426;48.372;10.888;2022-09-09T03:49:59;14.60;99.90
34153;DHT22;20426;48.372;10.888;2022-09-09T03:50:29;14.70;99.90
34153;DHT22;20426;48.372;10.888;2022-09-09T03:51:00;14.70;99.90
34153;DHT22;20426;48.372;10.888;2022-09-09T03:51:31;14.70;99.90
34153;DHT22;20426;48.372;10.888;2022-09-09T03:52:07;14.70;99.90
34153;DHT22;20426;48.372;10.888;2022-09-09T03:52:40;14.70;99.90
34153;DHT22;20426;48.372;10.888;2022-09-09T03:53:11;14.70;99.90
34153;DHT22;20426;48.372;10.888;2022-09-09T03:53:42;14.70;99.90
34153;DHT22;20426;48.372;10.888;2022-09-09T03:54:13;14.70;99.90
34153;DHT22;20426;48.372;10.888;2022-09-09T03:54:44;14.70;99.90
34153;DHT22;20426;48.372;10.888;2022-09-09T03:55:15;14.80;99.90
34153;DHT22;20426;48.372;10.888;2022-09-09T03:55:47;14.80;99.90
34153;DHT22;20426;48.372;10.888;2022-09-09T03:56:17;14.80;99.90
34153;DHT22;20426;48.372;10.888;2022-09-09T03:56:48;14.80;99.90
34153;DHT22;20426;48.372;10.888;2022-09-09T03:57:19;14.80;99.90
34153;DHT22;20426;48.372;10.888;2022-09-09T03:57:50;14.80;99.90
34153;DHT22;20426;48.372;10.888;2022-09-09T03:58:22;14.80;99.90
34153;DHT22;20426;48.372;10.888;2022-09-09T03:58:54;14.80;99.90
34153;DHT22;20426;48.372;10.888;2022-09-09T03:59:25;14.80;99.90
34153;DHT22;20426;48.372;10.888;2022-09-09T03:59:55;14.80;99.90
34153;DHT22;20426;48.372;10.888;2022-09-09T04:00:26;14.90;99.90
34153;DHT22;20426;48.372;10.888;2022-09-09T04:00:59;14.90;99.90
34153;DHT22;20426;48.372;10.888;2022-09-09T04:01:30;14.80;99.90
34153;DHT22;20426;48.372;10.888;2022-09-09T04:02:02;14.90;99.90
34153;DHT22;20426;48.372;10.888;2022-09-09T04:02:32;14.90;99.90
34153;DHT22;20426;48.372;10.888;2022-09-09T04:03:03;14.90;99.90
34153;DHT22;20426;48.372;10.888;2022-09-09T04:03:34;14.90;99.90
34153;DHT22;20426;48.372;10.888;2022-09-09T04:04:05;14.90;99.90
34153;DHT22;20426;48.372;10.888;2022-09-09T04:04:36;14.90;99.90
34153;DHT22;20426;48.372;10.888;2022-09-09T04:05:07;14.90;99.90
34153;DHT22;20426;48.372;10.888;2022-09-09T04:05:39;14.90;99.90
34153;DHT22;20426;48.372;10.888;2022-09-09T04:06:13;14.90;99.90
34153;DHT22;20426;48.372;10.888;2022-09-09T04:06:45;14.90;99.90
34153;DHT22;20426;48.372;10.888;2022-09-09T04:07:16;14.90;99.90
34153;DHT22;20426;48.372;10.888;2022-09-09T04:07:47;14.80;99.90
34153;DHT22;20426;48.372;10.888;2022-09-09T04:08:19;14.80;99.90
34153;DHT22;20426;48.372;10.888;2022-09-09T04:08:49;14.90;99.90
34153;DHT22;20426;48.372;10.888;2022-09-09T04:09:22;14.90;99.90
34153;DHT22;20426;48.372;10.888;2022-09-09T04:09:53;14.90;99.90
34153;DHT22;20426;48.372;10.888;2022-09-09T04:10:25;14.90;99.90
34153;DHT22;20426;48.372;10.888;2022-09-09T04:10:55;14.90;99.90
34153;DHT22;20426;48.372;10.888;2022-09-09T04:11:28;14.90;99.90
34153;DHT22;20426;48.372;10.888;2022-09-09T04:11:59;14.90;99.90
34153;DHT22;20426;48.372;10.888;2022-09-09T04:12:29;14.90;99.90
34153;DHT22;20426;48.372;10.888;2022-09-09T04:13:00;14.90;99.90
34153;DHT22;20426;48.372;10.888;2022-09-09T04:13:31;14.90;99.90
34153;DHT22;20426;48.372;10.888;2022-09-09T04:14:02;14.90;99.90
34153;DHT22;20426;48.372;10.888;2022-09-09T04:14:33;15.00;99.90
34153;DHT22;20426;48.372;10.888;2022-09-09T04:15:04;15.00;99.90
34153;DHT22;20426;48.372;10.888;2022-09-09T04:15:35;15.00;99.90
34153;DHT22;20426;48.372;10.888;2022-09-09T04:16:06;15.00;99.90
34153;DHT22;20426;48.372;10.888;2022-09-09T04:16:37;15.00;99.90
34153;DHT22;20426;48.372;10.888;2022-09-09T04:17:08;15.00;99.90